Flight Track Log - Related Links

Times and Time Zones

All times are in EDT time to prevent confusion due to time zone crossing. See the ASQ5875 flight status page for this flight to view local times or setup timezone preferences in your user account.

Time Position Orientation Groundspeed Altitude Reporting Facility
EDT Latitude Longitude Course Direction KTS MPH feet Rate Location/Type
Sun 11:23:30 AM 34.7111 -92.2619 235° Southwest 173 199 1,600  Level Memphis Center
Sun 11:24:31 AM 34.7292 -92.3156 292° West 218 251 3,700 2,033 Climbing Memphis Center
Sun 11:25:31 AM 34.7839 -92.2814 27° Northeast 245 282 5,700 1,835 Climbing Memphis Center
Sun 11:26:00 AM 34.9445 -92.0972 12° North  Level FlightAware Approximate
Sun 11:26:32 AM 34.8494 -92.2247 35° Northeast 274 315 7,400  Level Memphis Center
Sun 11:27:00 AM 35.0301 -92.0743 14° North  Level FlightAware Approximate
Sun 11:27:32 AM 34.9150 -92.1678 35° Northeast 274 315 9,500  Level Memphis Center
Sun 11:28:00 AM 35.1153 -92.0488 14° North  Level FlightAware Approximate
Sun 11:28:32 AM 34.9847 -92.1061 36° Northeast 285 328 11,300  Level Memphis Center
Sun 11:29:32 AM 35.0708 -92.0697 19° North 298 343 12,400 1,100 Climbing Memphis Center
Sun 11:30:32 AM 35.1672 -92.0411 14° North 328 377 13,500 1,250 Climbing Memphis Center
Sun 11:31:32 AM 35.2675 -92.0128 13° North 351 404 14,900 1,400 Climbing Memphis Center
Sun 11:32:32 AM 35.3661 -91.9814 15° North 359 413 16,300 1,250 Climbing Memphis Center
Sun 11:33:32 AM 35.4667 -91.9528 13° North 364 419 17,400 1,000 Climbing Memphis Center
Sun 11:34:32 AM 35.5711 -91.9242 13° North 372 428 18,300 950 Climbing Memphis Center
Sun 11:35:32 AM 35.6758 -91.8931 14° North 378 435 19,300 1,000 Climbing Memphis Center
Sun 11:36:32 AM 35.7825 -91.8642 12° North 378 435 20,300 1,000 Climbing Memphis Center
Sun 11:37:32 AM 35.8914 -91.8303 14° North 384 442 21,300 950 Climbing Memphis Center
Sun 11:38:32 AM 35.9814 -91.8011 15° North 390 449 22,200 950 Climbing Memphis Center
Sun 11:39:32 AM 36.0964 -91.7697 12° North 397 457 23,200 900 Climbing Memphis Center
Sun 11:40:32 AM 36.2072 -91.7383 13° North 397 457 24,000 900 Climbing Memphis Center
Sun 11:41:32 AM 36.3181 -91.7042 14° North 397 457 25,000 1,109 Climbing Memphis Center
Sun 11:43:36 AM 36.5419 -91.6344 14° North 401 461 27,400 1,135 Climbing Kansas City Center
Sun 11:44:37 AM 36.6589 -91.5997 13° North 399 459 28,500 1,008 Climbing Kansas City Center
Sun 11:45:41 AM 36.7672 -91.5675 13° North 399 459 29,500 1,056 Climbing Kansas City Center
Sun 11:46:42 AM 36.8744 -91.5333 14° North 398 458 30,700 1,161 Climbing Kansas City Center
Sun 11:47:45 AM 36.9817 -91.5033 13° North 396 456 31,900 1,122 Climbing Kansas City Center
Sun 11:48:45 AM 37.0881 -91.4694 14° North 395 455 33,000 1,113 Climbing Kansas City Center
Sun 11:49:49 AM 37.2172 -91.4308 13° North 395 455 34,200 1,008 Climbing Kansas City Center
Sun 11:50:50 AM 37.3256 -91.3981 14° North 397 457 35,100 934 Climbing Kansas City Center
Sun 11:51:51 AM 37.4333 -91.3647 14° North 399 459 36,100 912 Climbing Kansas City Center
Sun 11:52:55 AM 37.5428 -91.3308 14° North 400 460 37,000 435 Climbing Kansas City Center
Sun 11:53:55 AM 37.6533 -91.3233 North 399 459 37,000  Level Kansas City Center
Sun 11:54:58 AM 37.7683 -91.3189 North 406 467 37,000  Level Kansas City Center
Sun 11:56:01 AM 37.9139 -91.3108 North 424 488 37,000  Level Kansas City Center
Sun 11:57:01 AM 38.0369 -91.3003 North 437 503 37,000  Level Kansas City Center
Sun 11:58:04 AM 38.1594 -91.2525 17° North 451 519 37,000  Level Kansas City Center
Sun 11:59:04 AM 38.2811 -91.1889 22° Northeast 461 531 37,000  Level Kansas City Center
Sun 12:00:08 PM 38.4017 -91.1253 22° Northeast 466 536 37,000  Level Kansas City Center
Sun 12:01:08 PM 38.5242 -91.0625 22° Northeast 470 541 37,000  Level Kansas City Center
Sun 12:02:12 PM 38.6472 -90.9981 22° Northeast 474 545 37,000  Level Kansas City Center
Sun 12:03:15 PM 38.7703 -90.9325 23° Northeast 475 547 37,000  Level Kansas City Center
Sun 12:04:16 PM 38.9181 -90.8997 10° North 442 509 37,000  Level Kansas City Center
Sun 12:05:17 PM 39.0364 -90.9328 348° North 432 497 37,000  Level Kansas City Center
Sun 12:06:18 PM 39.1542 -90.9628 349° North 431 496 37,000  Level Kansas City Center
Sun 12:07:22 PM 39.2717 -90.9925 349° North 430 495 37,000  Level Kansas City Center
Sun 12:08:25 PM 39.3872 -91.0222 349° North 426 490 37,000  Level Kansas City Center
Sun 12:09:27 PM 39.5011 -91.0522 349° North 419 482 37,000  Level Kansas City Center
Sun 12:10:28 PM 39.6158 -91.0786 350° North 418 481 37,000 -145 Level Kansas City Center
Sun 12:11:31 PM 39.7525 -91.0153 20° North 446 513 36,700 -871 Descending Kansas City Center
Sun 12:12:32 PM 39.8614 -90.9056 38° Northeast 474 545 35,200 -1,366 Descending Kansas City Center
Sun 12:13:34 PM 39.9672 -90.8000 37° Northeast 477 549 33,900 -1,073 Descending Kansas City Center
Sun 12:14:35 PM 40.0761 -90.6928 37° Northeast 487 560 33,000 -435 Descending Kansas City Center
Sun 12:15:38 PM 40.1817 -90.5864 38° Northeast 483 556 33,000  Level Kansas City Center
Sun 12:16:39 PM 40.2900 -90.4778 37° Northeast 486 559 33,000  Level Kansas City Center
Sun 12:17:43 PM 40.3967 -90.3706 37° Northeast 485 558 33,000  Level Kansas City Center
Sun 12:18:01 PM 40.4383 -90.3289 37° Northeast 485 558 33,000  Level Chicago Center
Sun 12:19:03 PM 40.5508 -90.2069 39° Northeast 492 566 33,000 -871 Level Chicago Center
Sun 12:20:05 PM 40.6414 -90.0722 48° Northeast 494 568 31,200 -1,839 Descending Chicago Center
Sun 12:21:07 PM 40.7339 -89.9328 49° Northeast 507 583 29,200 -1,645 Descending Chicago Center
Sun 12:22:09 PM 40.8394 -89.7639 50° Northeast 498 573 27,800 -1,161 Descending Chicago Center
Sun 12:23:11 PM 40.9272 -89.6300 49° Northeast 481 554 26,800 -968 Descending Chicago Center
Sun 12:24:13 PM 41.0139 -89.4972 49° Northeast 458 527 25,800 -1,306 Descending Chicago Center
Sun 12:25:15 PM 41.0958 -89.3697 50° Northeast 453 521 24,100 -1,935 Descending Chicago Center
Sun 12:26:17 PM 41.1747 -89.2453 50° Northeast 443 510 21,800 -2,081 Descending Chicago Center
Sun 12:27:19 PM 41.2469 -89.1328 49° Northeast 430 495 19,800 -2,371 Descending Chicago Center
Sun 12:28:21 PM 41.3300 -88.9961 51° Northeast 400 460 16,900 -2,613 Descending Chicago Center
Sun 12:29:23 PM 41.3983 -88.8903 49° Northeast 381 438 14,400 -2,516 Descending Chicago Center
Sun 12:30:25 PM 41.4625 -88.7881 50° Northeast 362 417 11,700 -1,645 Descending Chicago Center
Sun 12:31:27 PM 41.5231 -88.6836 52° Northeast 355 409 11,000 -336 Descending Chicago Center
Sun 12:32:30 PM 41.5692 -88.5631 63° Northeast 365 420 11,000 -240 Level Chicago Center
Sun 12:33:32 PM 41.6186 -88.4481 60° Northeast 358 412 10,500 -484 Descending Chicago Center
Sun 12:34:34 PM 41.6892 -88.3275 52° Northeast 342 394 10,000 -242 Descending Chicago Center
Sun 12:35:36 PM 41.7483 -88.2281 51° Northeast 342 394 10,000 -194 Level Chicago Center
Sun 12:36:38 PM 41.8036 -88.1328 52° Northeast 322 371 9,600 -629 Descending Chicago Center
Sun 12:37:40 PM 41.8386 -88.0333 65° Northeast 300 345 8,700 -919 Descending Chicago Center
Sun 12:38:42 PM 41.8603 -87.9253 75° East 300 345 7,700 -823 Descending Chicago Center
Sun 12:39:44 PM 41.8792 -87.8256 76° East 280 322 7,000 -1,016 Descending Chicago Center
Sun 12:40:46 PM 41.8842 -87.7186 86° East 245 282 5,600 -1,306 Descending Chicago Center
Sun 12:41:48 PM 41.9100 -87.6556 61° Northeast 235 270 4,300 -1,161 Descending Chicago Center
Sun 12:42:50 PM 41.9531 -87.7072 318° Northwest 231 266 3,200 -1,016 Descending Chicago Center
Sun 12:43:52 PM 41.9719 -87.7828 289° West 223 257 2,200 -871 Descending Chicago Center
Sun 12:44:54 PM 41.9689 -87.8367 266° West 173 199 1,400 -774 Descending Chicago Center

Login

Don't have an account? Register now (free) for customized features, flight alerts, and more!